Martinsburg, Missouri
Current Conditions -  °F | °C
As of 4:54 PM on Tuesday 25 Nov 2014 (Local Time) from KCOU Reporting Station
Clear Clear  
Wind Chill:   Ceiling: Unl
Heat Index:   Visibility: 10mi
Dew Point: -9°   Wind: 5mph
Humidity: 41%   Direction: 240°WSW
Pressure: 30.13"   Gusts: NA
Location:  39.1°N, 91.65°W
Report Text: KCOU 252254Z 24004KT 10SM CLR 03/M09 A3013 RMK AO2 SLP212 T00281094
Loading
Personal Weather Stations






























Interactive Weather Map New forecast layout! Learn more

10-Day Weather Forecast

Advertisements
Track Severe Weather on mobile